createdAt,value
2023-04-17T00:02:05.317Z,101324.16
2023-04-17T00:04:32.783Z,101317.75
2023-04-17T00:07:01.529Z,101314.53
2023-04-17T00:09:28.835Z,101317.44
2023-04-17T00:11:56.483Z,101310.69
2023-04-17T00:14:24.353Z,101317.19
2023-04-17T00:16:51.726Z,101324.72
2023-04-17T00:19:19.091Z,101317.09
2023-04-17T00:21:46.417Z,101324.31
2023-04-17T00:24:15.431Z,101337.03
2023-04-17T00:26:42.659Z,101329.81
2023-04-17T00:29:10.252Z,101328.31
2023-04-17T00:31:37.786Z,101316.34
2023-04-17T00:34:05.211Z,101323.94
2023-04-17T00:36:32.650Z,101313.56
2023-04-17T00:39:00.057Z,101308.84
2023-04-17T00:41:28.707Z,101308.47
2023-04-17T00:43:56.101Z,101317.13
2023-04-17T00:46:24.334Z,101315.59
2023-04-17T00:48:51.906Z,101319.22
2023-04-17T00:51:19.510Z,101309.50
2023-04-17T00:53:47.773Z,101305.22
2023-04-17T00:56:15.076Z,101311.16
2023-04-17T00:58:43.914Z,101308.38
2023-04-17T01:01:11.563Z,101314.03
2023-04-17T01:03:39.099Z,101308.75
2023-04-17T01:06:06.842Z,101306.78
2023-04-17T01:08:42.241Z,101308.09
2023-04-17T01:11:09.805Z,101310.13
2023-04-17T01:13:45.771Z,101306.97
2023-04-17T01:16:13.575Z,101298.53
2023-04-17T01:18:40.933Z,101285.06
2023-04-17T01:21:08.217Z,101294.28
2023-04-17T01:23:44.280Z,101283.97
2023-04-17T01:26:16.909Z,101286.22
2023-04-17T01:28:44.665Z,101298.19
2023-04-17T01:31:15.291Z,101293.13
2023-04-17T01:33:42.662Z,101278.50
2023-04-17T01:36:09.898Z,101269.28
2023-04-17T01:38:37.612Z,101271.34
2023-04-17T01:41:05.119Z,101271.41
2023-04-17T01:43:33.683Z,101283.31
2023-04-17T01:46:01.052Z,101280.13
2023-04-17T01:48:28.354Z,101275.69
2023-04-17T01:50:55.513Z,101278.56
2023-04-17T01:53:22.806Z,101278.19
2023-04-17T01:55:50.037Z,101279.75
2023-04-17T01:58:17.246Z,101272.63
2023-04-17T02:00:47.041Z,101277.38
2023-04-17T02:03:14.405Z,101282.56
2023-04-17T02:05:41.844Z,101287.31
2023-04-17T02:08:09.139Z,101288.91
2023-04-17T02:10:36.381Z,101285.81
2023-04-17T02:13:03.623Z,101285.38
2023-04-17T02:15:31.231Z,101283.47
2023-04-17T02:17:59.863Z,101289.00
2023-04-17T02:20:27.079Z,101278.28
2023-04-17T02:22:54.646Z,101283.47
2023-04-17T02:25:21.900Z,101279.50
2023-04-17T02:27:49.175Z,101278.75
2023-04-17T02:30:16.386Z,101270.78
2023-04-17T02:32:43.761Z,101267.63
2023-04-17T02:35:13.473Z,101264.47
2023-04-17T02:37:40.705Z,101269.19
2023-04-17T02:40:08.966Z,101270.03
2023-04-17T02:42:37.680Z,101278.41
2023-04-17T02:45:06.040Z,101273.28
2023-04-17T02:47:33.354Z,101277.25
2023-04-17T02:50:01.117Z,101286.03
2023-04-17T02:52:30.792Z,101279.66
2023-04-17T02:54:58.652Z,101288.03
2023-04-17T02:57:27.272Z,101289.28
2023-04-17T02:59:57.478Z,101285.78
2023-04-17T03:02:24.888Z,101285.72
2023-04-17T03:04:52.281Z,101274.25
2023-04-17T03:07:20.701Z,101277.53
2023-04-17T03:09:49.948Z,101278.72
2023-04-17T03:12:17.383Z,101279.09
2023-04-17T03:14:44.579Z,101287.06
2023-04-17T03:17:14.090Z,101293.41
2023-04-17T03:19:41.809Z,101297.44
2023-04-17T03:22:10.829Z,101293.88
2023-04-17T03:24:39.880Z,101295.09
2023-04-17T03:27:08.816Z,101292.28
2023-04-17T03:29:39.834Z,101294.25
2023-04-17T03:32:07.140Z,101293.47
2023-04-17T03:34:34.580Z,101303.03
2023-04-17T03:37:01.955Z,101297.44
2023-04-17T03:39:31.499Z,101295.06
2023-04-17T03:41:58.857Z,101301.41
2023-04-17T03:44:27.538Z,101295.47
2023-04-17T03:46:54.790Z,101302.25
2023-04-17T03:49:22.589Z,101299.88
2023-04-17T03:51:50.392Z,101302.25
2023-04-17T03:54:20.851Z,101303.06
2023-04-17T03:56:50.215Z,101303.47
2023-04-17T03:59:18.509Z,101306.59
2023-04-17T04:01:47.769Z,101302.66
2023-04-17T04:04:19.740Z,101304.66
2023-04-17T04:06:48.852Z,101307.84
2023-04-17T04:09:19.399Z,101308.66
2023-04-17T04:11:46.884Z,101318.16
2023-04-17T04:14:14.188Z,101312.25
2023-04-17T04:16:41.663Z,101313.41
2023-04-17T04:19:13.277Z,101324.53
2023-04-17T04:21:40.919Z,101319.75
2023-04-17T04:24:09.913Z,101325.38
2023-04-17T04:26:37.540Z,101322.16
2023-04-17T04:29:04.747Z,101327.69
2023-04-17T04:31:49.071Z,101332.50
2023-04-17T04:34:18.296Z,101322.53
2023-04-17T04:36:45.527Z,101324.09
2023-04-17T04:39:20.602Z,101315.34
2023-04-17T04:41:49.505Z,101315.75
2023-04-17T04:44:18.206Z,101321.72
2023-04-17T04:46:46.359Z,101322.91
2023-04-17T04:49:13.883Z,101331.25
2023-04-17T04:51:42.739Z,101325.28
2023-04-17T04:54:10.759Z,101333.63
2023-04-17T04:56:46.522Z,101326.84
2023-04-17T04:59:16.012Z,101332.75
2023-04-17T05:01:49.547Z,101332.75
2023-04-17T05:04:19.891Z,101330.78
2023-04-17T05:06:50.877Z,101329.03
2023-04-17T05:09:18.535Z,101337.91
2023-04-17T05:11:47.431Z,101340.97
2023-04-17T05:14:14.836Z,101343.78
2023-04-17T05:16:42.525Z,101337.88
2023-04-17T05:19:10.582Z,101337.88
2023-04-17T05:21:51.989Z,101335.06
2023-04-17T05:24:21.215Z,101336.50
2023-04-17T05:26:49.801Z,101341.38
2023-04-17T05:29:17.178Z,101336.91
2023-04-17T05:31:44.468Z,101337.16
2023-04-17T05:34:25.010Z,101344.75
2023-04-17T05:36:53.743Z,101334.78
2023-04-17T05:39:20.991Z,101335.44
2023-04-17T05:41:48.320Z,101334.31
2023-04-17T05:44:15.672Z,101330.91
2023-04-17T05:46:42.965Z,101331.59
2023-04-17T05:49:12.143Z,101323.47
2023-04-17T05:51:39.651Z,101321.19
2023-04-17T05:54:08.331Z,101321.78
2023-04-17T05:56:35.867Z,101327.56
2023-04-17T05:59:03.101Z,101313.03
2023-04-17T06:01:30.875Z,101320.59
2023-04-17T06:03:58.418Z,101322.41
2023-04-17T06:06:27.804Z,101321.84
2023-04-17T06:08:54.968Z,101321.31
2023-04-17T06:11:24.626Z,101326.38
2023-04-17T06:13:52.753Z,101326.50
2023-04-17T06:16:21.055Z,101332.34
2023-04-17T06:18:49.264Z,101336.69
2023-04-17T06:21:16.661Z,101327.63
2023-04-17T06:23:43.925Z,101332.69
2023-04-17T06:26:11.183Z,101345.59
2023-04-17T06:28:41.442Z,101340.72
2023-04-17T06:31:09.378Z,101340.34
2023-04-17T06:33:36.667Z,101353.97
2023-04-17T06:36:04.414Z,101361.78
2023-04-17T06:38:48.222Z,101372.44
2023-04-17T06:41:17.576Z,101383.63
2023-04-17T06:43:46.247Z,101378.59
2023-04-17T06:46:15.065Z,101388.50
2023-04-17T06:48:42.428Z,101387.03
2023-04-17T06:51:09.831Z,101392.59
2023-04-17T06:53:37.117Z,101396.72
2023-04-17T06:56:05.102Z,101406.50
2023-04-17T06:58:32.310Z,101406.56
2023-04-17T07:01:00.885Z,101418.13
2023-04-17T07:03:28.337Z,101425.75
2023-04-17T07:05:55.715Z,101428.09
2023-04-17T07:08:22.886Z,101431.13
2023-04-17T07:10:50.341Z,101444.00
2023-04-17T07:13:17.520Z,101459.97
2023-04-17T07:15:44.835Z,101462.25
2023-04-17T07:18:13.621Z,101468.47
2023-04-17T07:20:41.072Z,101487.22
2023-04-17T07:23:10.272Z,101504.38
2023-04-17T07:25:37.544Z,101512.84
2023-04-17T07:28:05.079Z,101520.69
2023-04-17T07:30:32.424Z,101532.38
2023-04-17T07:33:00.595Z,101547.91
2023-04-17T07:35:29.291Z,101561.59
2023-04-17T07:37:56.495Z,101572.53
2023-04-17T07:40:24.206Z,101585.91
2023-04-17T07:42:51.446Z,101596.38
2023-04-17T07:45:18.767Z,101622.63
2023-04-17T07:47:46.323Z,101648.78
2023-04-17T07:50:14.101Z,101660.47
2023-04-17T07:52:42.772Z,101704.75
2023-04-17T07:55:10.086Z,101738.00
2023-04-17T07:57:37.281Z,101771.81
2023-04-17T08:00:05.528Z,101817.72
2023-04-17T08:02:40.405Z,101861.88
2023-04-17T08:05:08.782Z,101880.38
2023-04-17T08:07:36.469Z,101915.72
2023-04-17T08:10:06.027Z,101962.47
2023-04-17T08:12:33.262Z,101991.84
2023-04-17T08:15:00.499Z,102030.63
2023-04-17T08:17:27.796Z,102038.84
2023-04-17T08:19:55.224Z,102076.59
2023-04-17T08:22:22.421Z,102114.81
2023-04-17T08:24:49.880Z,102167.91
2023-04-17T08:27:18.492Z,102208.38
2023-04-17T08:29:45.689Z,102220.97
2023-04-17T08:32:14.850Z,102242.06
2023-04-17T08:34:44.522Z,102257.03
2023-04-17T08:37:11.836Z,102246.63
2023-04-17T08:39:39.114Z,102260.41
2023-04-17T08:42:10.030Z,102275.69
2023-04-17T08:44:40.862Z,102316.22
2023-04-17T08:47:08.093Z,102324.16
2023-04-17T08:49:36.144Z,102346.75
2023-04-17T08:52:08.938Z,102358.09
2023-04-17T08:54:36.200Z,102370.97
2023-04-17T08:57:04.014Z,102358.16
2023-04-17T08:59:31.880Z,102382.88
2023-04-17T09:02:07.489Z,102452.78
2023-04-17T09:04:43.852Z,102446.69
2023-04-17T09:07:12.737Z,102502.69
2023-04-17T09:09:47.554Z,102537.81
2023-04-17T09:12:15.152Z,102528.09
2023-04-17T09:14:42.566Z,102551.91
2023-04-17T09:17:11.344Z,102590.66
2023-04-17T09:19:38.760Z,102621.47
2023-04-17T09:22:19.203Z,102659.84
2023-04-17T09:24:46.523Z,102698.63
2023-04-17T09:27:20.430Z,102705.16
2023-04-17T09:29:59.136Z,102705.22
2023-04-17T09:32:28.673Z,102720.41
2023-04-17T09:34:58.123Z,102730.75
2023-04-17T09:37:25.875Z,102745.47
2023-04-17T09:39:58.709Z,102772.94
2023-04-17T09:42:26.295Z,102774.75
2023-04-17T09:44:53.754Z,102783.75
2023-04-17T09:47:21.700Z,102786.28
2023-04-17T09:49:51.730Z,102801.31
2023-04-17T09:52:20.665Z,102829.56
2023-04-17T09:54:48.748Z,102847.72
2023-04-17T09:57:17.055Z,102845.13
2023-04-17T09:59:45.526Z,102842.44
2023-04-17T10:02:14.029Z,102852.91
2023-04-17T10:04:41.979Z,102853.50
2023-04-17T10:07:11.496Z,102834.09
2023-04-17T10:09:40.181Z,102844.34
2023-04-17T10:12:11.910Z,102840.63
2023-04-17T10:14:40.912Z,102841.81
2023-04-17T10:17:24.269Z,102834.94
2023-04-17T10:19:52.145Z,102835.00
2023-04-17T10:22:30.872Z,102855.78
2023-04-17T10:25:17.199Z,102838.47
2023-04-17T10:27:49.472Z,102854.91
2023-04-17T10:30:17.016Z,102854.16
2023-04-17T10:32:46.242Z,102834.72
2023-04-17T10:35:35.369Z,102833.59
2023-04-17T10:38:06.166Z,102835.69
2023-04-17T10:40:35.251Z,102828.16
2023-04-17T10:43:04.566Z,102825.56
2023-04-17T10:46:04.424Z,102826.94
2023-04-17T10:48:33.829Z,102833.28
2023-04-17T10:51:02.066Z,102830.84
2023-04-17T10:53:42.347Z,102839.22
2023-04-17T10:56:11.004Z,102826.47
2023-04-17T10:58:56.794Z,102819.84
2023-04-17T11:01:26.788Z,102817.16
2023-04-17T11:03:54.978Z,102810.88
2023-04-17T11:06:22.489Z,102808.44
2023-04-17T11:08:51.914Z,102807.13
2023-04-17T11:11:26.942Z,102811.78
2023-04-17T11:14:07.248Z,102777.81
2023-04-17T11:16:34.721Z,102782.66
2023-04-17T11:19:02.059Z,102767.41
2023-04-17T11:21:29.782Z,102783.13
2023-04-17T11:24:02.025Z,102777.09
2023-04-17T11:26:29.227Z,102790.22
2023-04-17T11:28:56.427Z,102790.13
2023-04-17T11:31:23.823Z,102769.22
2023-04-17T11:33:51.494Z,102750.06
2023-04-17T11:36:18.816Z,102744.59
2023-04-17T11:38:49.125Z,102747.22
2023-04-17T11:41:17.707Z,102750.66
2023-04-17T11:43:44.979Z,102740.22
2023-04-17T11:46:12.319Z,102748.31
2023-04-17T11:48:40.214Z,102749.41
2023-04-17T11:51:07.575Z,102784.47
2023-04-17T11:53:35.215Z,102770.56
2023-04-17T11:56:13.554Z,102756.78
2023-04-17T11:58:52.701Z,102744.25
2023-04-17T12:01:21.251Z,102721.72
2023-04-17T12:03:48.656Z,102723.69
2023-04-17T12:06:16.490Z,102744.03
2023-04-17T12:08:48.451Z,102753.03
2023-04-17T12:11:28.720Z,102754.69
2023-04-17T12:13:57.853Z,102724.63
2023-04-17T12:16:26.436Z,102727.56
2023-04-17T12:18:54.020Z,102738.44
2023-04-17T12:21:21.985Z,102726.06
2023-04-17T12:23:49.632Z,102724.44
2023-04-17T12:26:16.868Z,102726.66
2023-04-17T12:28:44.205Z,102734.72
2023-04-17T12:31:13.103Z,102772.19
2023-04-17T12:33:40.395Z,102764.66
2023-04-17T12:36:08.411Z,102767.63
2023-04-17T12:38:35.834Z,102779.66
2023-04-17T12:41:03.295Z,102757.59
2023-04-17T12:43:31.592Z,102717.28
2023-04-17T12:45:58.842Z,102732.09
2023-04-17T12:48:27.472Z,102747.44
2023-04-17T12:50:54.714Z,102744.00
2023-04-17T12:53:21.999Z,102752.81
2023-04-17T12:55:49.264Z,102744.38
2023-04-17T12:58:16.662Z,102770.25
2023-04-17T13:00:44.083Z,102765.56
2023-04-17T13:03:12.168Z,102765.56
2023-04-17T13:05:41.306Z,102728.69
2023-04-17T13:08:08.622Z,102704.72
2023-04-17T13:10:35.758Z,102705.66
2023-04-17T13:13:03.077Z,102727.00
2023-04-17T13:15:31.318Z,102745.19
2023-04-17T13:17:58.713Z,102715.03
2023-04-17T13:20:26.224Z,102688.63
2023-04-17T13:22:55.104Z,102690.28
2023-04-17T13:25:23.119Z,102686.81
2023-04-17T13:27:50.328Z,102694.47
2023-04-17T13:30:17.909Z,102705.25
2023-04-17T13:32:45.322Z,102699.09
2023-04-17T13:35:12.526Z,102705.13
2023-04-17T13:37:40.166Z,102683.97
2023-04-17T13:40:09.894Z,102681.38
2023-04-17T13:42:37.684Z,102696.81
2023-04-17T13:45:05.929Z,102713.88
2023-04-17T13:47:33.281Z,102682.19
2023-04-17T13:50:00.501Z,102669.72
2023-04-17T13:52:27.822Z,102680.88
2023-04-17T13:54:54.983Z,102648.88
2023-04-17T13:57:23.708Z,102660.66
2023-04-17T13:59:50.976Z,102656.50
2023-04-17T14:02:18.751Z,102665.25
2023-04-17T14:04:46.179Z,102655.72
2023-04-17T14:07:13.531Z,102632.34
2023-04-17T14:09:40.732Z,102662.78
2023-04-17T14:12:08.131Z,102671.78
2023-04-17T14:14:36.770Z,102666.38
2023-04-17T14:17:04.048Z,102652.66
2023-04-17T14:19:31.554Z,102670.00
2023-04-17T14:21:58.784Z,102657.78
2023-04-17T14:24:25.977Z,102641.69
2023-04-17T14:26:53.258Z,102639.94
2023-04-17T14:29:20.446Z,102623.41
2023-04-17T14:31:49.346Z,102625.09
2023-04-17T14:34:16.727Z,102630.34
2023-04-17T14:36:44.035Z,102656.03
2023-04-17T14:39:11.616Z,102648.19
2023-04-17T14:41:39.192Z,102643.34
2023-04-17T14:44:06.447Z,102644.75
2023-04-17T14:46:33.808Z,102616.78
2023-04-17T14:49:02.699Z,102623.56
2023-04-17T14:51:30.567Z,102645.91
2023-04-17T14:53:58.049Z,102660.91
2023-04-17T14:56:25.282Z,102683.31
2023-04-17T14:58:52.542Z,102697.63
2023-04-17T15:01:19.879Z,102680.34
2023-04-17T15:03:48.539Z,102657.97
2023-04-17T15:06:18.109Z,102641.97
2023-04-17T15:08:45.643Z,102651.22
2023-04-17T15:11:12.996Z,102650.41
2023-04-17T15:13:40.283Z,102629.00
2023-04-17T15:16:09.239Z,102655.66
2023-04-17T15:18:36.525Z,102676.06
2023-04-17T15:21:04.069Z,102674.97
2023-04-17T15:23:32.668Z,102648.31
2023-04-17T15:26:00.546Z,102639.97
2023-04-17T15:28:28.080Z,102636.81
2023-04-17T15:30:56.664Z,102659.59
2023-04-17T15:33:23.948Z,102646.50
2023-04-17T15:35:53.837Z,102652.97
2023-04-17T15:38:21.112Z,102686.00
2023-04-17T15:40:49.996Z,102688.78
2023-04-17T15:43:17.902Z,102689.00
2023-04-17T15:45:45.159Z,102683.94
2023-04-17T15:48:12.391Z,102682.50
2023-04-17T15:50:40.627Z,102684.75
2023-04-17T15:53:09.042Z,102689.56
2023-04-17T15:55:36.469Z,102691.66
2023-04-17T15:58:05.210Z,102685.69
2023-04-17T16:00:32.620Z,102685.81
2023-04-17T16:02:59.974Z,102682.06
2023-04-17T16:05:27.392Z,102681.91
2023-04-17T16:07:54.558Z,102675.41
2023-04-17T16:10:22.024Z,102664.81
2023-04-17T16:12:49.477Z,102673.34
2023-04-17T16:15:18.192Z,102680.63
2023-04-17T16:17:45.927Z,102687.25
2023-04-17T16:20:13.772Z,102689.59
2023-04-17T16:22:40.959Z,102699.22
2023-04-17T16:25:09.768Z,102718.28
2023-04-17T16:27:37.063Z,102715.66
2023-04-17T16:30:05.382Z,102714.13
2023-04-17T16:32:34.119Z,102709.63
2023-04-17T16:35:01.414Z,102716.59
2023-04-17T16:37:28.745Z,102701.06
2023-04-17T16:39:56.165Z,102713.13
2023-04-17T16:42:23.535Z,102703.81
2023-04-17T16:44:50.818Z,102703.00
2023-04-17T16:47:18.124Z,102716.22
2023-04-17T16:49:47.212Z,102720.91
2023-04-17T16:52:14.482Z,102713.72
2023-04-17T16:54:41.848Z,102714.44
2023-04-17T16:57:09.330Z,102743.72
2023-04-17T16:59:36.702Z,102737.06
2023-04-17T17:02:04.128Z,102731.56
2023-04-17T17:04:31.466Z,102727.50
2023-04-17T17:06:59.999Z,102751.88
2023-04-17T17:09:27.389Z,102765.16
2023-04-17T17:11:54.725Z,102770.72
2023-04-17T17:14:22.068Z,102761.88
2023-04-17T17:16:49.434Z,102776.09
2023-04-17T17:19:16.808Z,102775.56
2023-04-17T17:21:44.245Z,102773.81
2023-04-17T17:24:12.882Z,102778.38
2023-04-17T17:26:40.272Z,102780.38
2023-04-17T17:29:07.897Z,102782.25
2023-04-17T17:31:35.253Z,102789.84
2023-04-17T17:34:16.762Z,102794.72
2023-04-17T17:36:49.718Z,102802.34
2023-04-17T17:39:18.452Z,102826.19
2023-04-17T17:41:47.364Z,102827.34
2023-04-17T17:44:15.126Z,102827.66
2023-04-17T17:46:42.640Z,102838.13
2023-04-17T17:49:09.951Z,102842.63
2023-04-17T17:51:37.356Z,102838.06
2023-04-17T17:54:04.601Z,102853.38
2023-04-17T17:56:33.330Z,102859.41
2023-04-17T17:59:00.528Z,102880.06
2023-04-17T18:01:27.907Z,102878.97
2023-04-17T18:03:55.390Z,102885.59
2023-04-17T18:06:22.998Z,102880.31
2023-04-17T18:08:50.395Z,102896.50
2023-04-17T18:11:17.727Z,102898.94
2023-04-17T18:13:46.360Z,102906.22
2023-04-17T18:16:13.694Z,102906.25
2023-04-17T18:18:41.032Z,102915.06
2023-04-17T18:21:09.070Z,102911.84
2023-04-17T18:23:36.321Z,102918.25
2023-04-17T18:26:04.231Z,102919.00
2023-04-17T18:28:32.824Z,102924.63
2023-04-17T18:31:01.506Z,102916.66
2023-04-17T18:33:28.841Z,102927.03
2023-04-17T18:35:56.269Z,102927.03
2023-04-17T18:38:23.459Z,102935.81
2023-04-17T18:40:53.816Z,102939.03
2023-04-17T18:43:21.097Z,102941.75
2023-04-17T18:45:48.678Z,102947.66
2023-04-17T18:48:17.462Z,102947.66
2023-04-17T18:50:44.971Z,102945.25
2023-04-17T18:53:12.249Z,102955.16
2023-04-17T18:55:39.858Z,102953.97
2023-04-17T18:58:07.285Z,102952.34
2023-04-17T19:00:34.646Z,102960.28
2023-04-17T19:03:01.984Z,102951.47
2023-04-17T19:05:30.836Z,102964.22
2023-04-17T19:07:59.012Z,102957.06
2023-04-17T19:10:26.510Z,102961.88
2023-04-17T19:12:53.826Z,102959.44
2023-04-17T19:15:21.204Z,102961.00
2023-04-17T19:17:48.565Z,102964.53
2023-04-17T19:20:16.737Z,102960.50
2023-04-17T19:22:45.367Z,102967.97
2023-04-17T19:25:12.640Z,102967.25
2023-04-17T19:27:40.004Z,102960.47
2023-04-17T19:30:08.697Z,102959.22
2023-04-17T19:32:36.113Z,102963.09
2023-04-17T19:35:03.716Z,102967.94
2023-04-17T19:37:30.937Z,102959.13
2023-04-17T19:39:59.573Z,102966.63
2023-04-17T19:42:26.830Z,102963.78
2023-04-17T19:44:54.510Z,102972.34
2023-04-17T19:47:21.911Z,102978.00
2023-04-17T19:49:49.233Z,102972.69
2023-04-17T19:52:16.527Z,102969.94
2023-04-17T19:54:44.144Z,102977.97
2023-04-17T19:57:12.804Z,102975.47
2023-04-17T19:59:40.372Z,102969.13
2023-04-17T20:02:07.752Z,102970.69
2023-04-17T20:04:35.187Z,102971.28
2023-04-17T20:07:02.431Z,102968.59
2023-04-17T20:09:30.163Z,102967.06
2023-04-17T20:11:57.503Z,102972.91
2023-04-17T20:14:26.220Z,102972.09
2023-04-17T20:16:53.484Z,102972.25
2023-04-17T20:19:20.826Z,102966.69
2023-04-17T20:21:48.001Z,102976.50
2023-04-17T20:24:15.380Z,102973.84
2023-04-17T20:26:42.949Z,102966.88
2023-04-17T20:29:10.668Z,102964.47
2023-04-17T20:31:39.533Z,102968.16
2023-04-17T20:34:07.043Z,102970.63
2023-04-17T20:36:34.352Z,102967.44
2023-04-17T20:39:01.556Z,102961.19
2023-04-17T20:41:28.847Z,102965.53
2023-04-17T20:43:57.016Z,102960.38
2023-04-17T20:46:29.705Z,102963.13
2023-04-17T20:48:58.701Z,102957.88
2023-04-17T20:51:26.306Z,102951.38
2023-04-17T20:53:54.238Z,102945.44
2023-04-17T20:56:21.497Z,102943.84
2023-04-17T20:58:49.505Z,102935.06
2023-04-17T21:01:16.976Z,102935.50
2023-04-17T21:03:44.459Z,102926.25
2023-04-17T21:06:13.112Z,102921.34
2023-04-17T21:08:40.437Z,102912.78
2023-04-17T21:11:07.924Z,102914.06
2023-04-17T21:13:35.296Z,102901.75
2023-04-17T21:16:02.696Z,102889.41
2023-04-17T21:18:30.163Z,102881.25
2023-04-17T21:20:57.384Z,102875.06
2023-04-17T21:23:26.390Z,102866.78
2023-04-17T21:25:53.733Z,102861.94
2023-04-17T21:28:21.211Z,102857.63
2023-04-17T21:30:48.639Z,102857.69
2023-04-17T21:33:15.896Z,102849.00
2023-04-17T21:35:43.268Z,102843.94
2023-04-17T21:38:11.055Z,102845.00
2023-04-17T21:40:50.640Z,102838.66
2023-04-17T21:43:18.946Z,102837.41
2023-04-17T21:45:46.213Z,102830.81
2023-04-17T21:48:14.437Z,102834.66
2023-04-17T21:50:41.944Z,102833.28
2023-04-17T21:53:09.547Z,102826.91
2023-04-17T21:55:38.853Z,102832.03
2023-04-17T21:58:06.898Z,102839.13
2023-04-17T22:00:34.241Z,102830.13
2023-04-17T22:03:01.618Z,102835.63
2023-04-17T22:05:28.898Z,102829.31
2023-04-17T22:07:56.121Z,102830.78
2023-04-17T22:10:24.198Z,102831.91
2023-04-17T22:12:52.975Z,102822.25
2023-04-17T22:15:20.362Z,102825.63
2023-04-17T22:17:47.719Z,102822.03
2023-04-17T22:20:15.178Z,102824.34
2023-04-17T22:22:42.465Z,102811.66
2023-04-17T22:25:09.940Z,102813.22
2023-04-17T22:27:37.370Z,102810.97
2023-04-17T22:30:07.048Z,102792.88
2023-04-17T22:32:34.673Z,102806.22
2023-04-17T22:35:02.012Z,102807.38
2023-04-17T22:37:29.424Z,102805.84
2023-04-17T22:39:56.622Z,102800.22
2023-04-17T22:42:23.884Z,102799.84
2023-04-17T22:44:51.145Z,102797.50
2023-04-17T22:47:21.433Z,102788.44
2023-04-17T22:49:48.714Z,102780.09
2023-04-17T22:52:16.003Z,102778.47
2023-04-17T22:54:43.320Z,102773.56
2023-04-17T22:57:10.925Z,102770.78
2023-04-17T22:59:38.231Z,102759.16
2023-04-17T23:02:05.749Z,102747.16
2023-04-17T23:04:34.463Z,102746.03
2023-04-17T23:07:01.767Z,102742.31
2023-04-17T23:09:28.997Z,102726.91
2023-04-17T23:11:56.495Z,102711.25
2023-04-17T23:14:23.676Z,102690.63
2023-04-17T23:16:50.900Z,102687.28
2023-04-17T23:19:18.184Z,102673.16
2023-04-17T23:21:46.886Z,102662.84
2023-04-17T23:24:14.482Z,102662.88
2023-04-17T23:26:42.014Z,102673.31
2023-04-17T23:29:09.356Z,102669.06
2023-04-17T23:31:37.004Z,102670.22
2023-04-17T23:34:04.248Z,102670.22
2023-04-17T23:36:31.532Z,102673.84
2023-04-17T23:39:00.173Z,102667.94
2023-04-17T23:41:27.531Z,102673.47
2023-04-17T23:43:54.765Z,102667.88
2023-04-17T23:46:22.052Z,102655.25
2023-04-17T23:48:49.385Z,102664.66
2023-04-17T23:51:16.650Z,102653.56
2023-04-17T23:53:43.910Z,102655.13
2023-04-17T23:56:12.636Z,102635.63
2023-04-17T23:58:39.918Z,102624.94
